AMV315 LZLU-LZBD

Flight info

Callsign AMV315
Flight time N/A
Altitude 7000
Route ETNIK DCT VP017 DCT KSC
Aircraft C208/L-SDFGR/C

Departure

Time 2026-05-04 09:15
Airport Lučenec Airfield (LZLU)

Arrival

Time N/A
Airport LZBD
Time Latitude Longitude Altitude Speed Heading
2026-05-04 09:02 48.33913 19.73408 711 ft 0 kts 134°
2026-05-04 09:10 48.33909 19.73413 714 ft 4 kts 142°
2026-05-04 09:10 48.33889 19.73452 712 ft 5 kts 83°
2026-05-04 09:11 48.33916 19.73495 711 ft 4 kts 42°
2026-05-04 09:11 48.33923 19.73504 711 ft 0 kts 41°
2026-05-04 09:12 48.33929 19.73512 712 ft 5 kts 40°
2026-05-04 09:14 48.34240 19.73199 709 ft 3 kts 289°
2026-05-04 09:14 48.34226 19.73199 712 ft 0 kts 128°
2026-05-04 09:15 48.34206 19.73235 711 ft 24 kts 132°
2026-05-04 09:15 48.33959 19.73642 719 ft 78 kts 137°
2026-05-04 09:15 48.33572 19.74339 942 ft 91 kts 128°
2026-05-04 09:15 48.33253 19.75212 1190 ft 100 kts 119°
2026-05-04 09:17 48.37127 19.85224 2680 ft 162 kts 72°
2026-05-04 09:18 48.37504 19.86816 2917 ft 162 kts 72°
2026-05-04 09:18 48.37882 19.88420 3139 ft 162 kts 72°
2026-05-04 09:18 48.38257 19.90005 3375 ft 160 kts 73°
2026-05-04 09:18 48.38631 19.91590 3589 ft 161 kts 72°
2026-05-04 09:19 48.39002 19.93172 3811 ft 160 kts 73°
2026-05-04 09:19 48.39371 19.94740 4037 ft 159 kts 73°
2026-05-04 09:19 48.39741 19.96317 4259 ft 160 kts 72°
2026-05-04 09:19 48.40116 19.97901 4483 ft 160 kts 72°
2026-05-04 09:20 48.40488 19.99487 4716 ft 162 kts 73°
2026-05-04 09:20 48.40865 20.01092 4950 ft 163 kts 73°
2026-05-04 09:20 48.41246 20.02713 5174 ft 165 kts 73°
2026-05-04 09:20 48.41624 20.04350 5388 ft 166 kts 73°
2026-05-04 09:21 48.42010 20.05974 5636 ft 165 kts 72°
2026-05-04 09:21 48.42394 20.07595 5839 ft 162 kts 73°
2026-05-04 09:21 48.42765 20.09191 5999 ft 165 kts 73°
2026-05-04 09:21 48.43155 20.10884 6010 ft 175 kts 72°
2026-05-04 09:22 48.43565 20.12647 6021 ft 181 kts 72°
2026-05-04 09:22 48.43990 20.14449 6012 ft 188 kts 72°
2026-05-04 09:22 48.44438 20.16342 6009 ft 190 kts 73°
2026-05-04 09:22 48.44882 20.18236 6015 ft 193 kts 73°
2026-05-04 09:23 48.45318 20.20153 6009 ft 193 kts 73°
2026-05-04 09:23 48.45754 20.22021 6011 ft 189 kts 72°
2026-05-04 09:23 48.46193 20.23906 6013 ft 193 kts 73°
2026-05-04 09:23 48.46640 20.25818 6003 ft 193 kts 72°
2026-05-04 09:25 48.49721 20.39153 6013 ft 195 kts 72°
2026-05-04 09:25 48.50168 20.41083 6004 ft 194 kts 72°
2026-05-04 09:26 48.50609 20.43008 6009 ft 194 kts 72°
2026-05-04 09:26 48.51052 20.44937 6004 ft 195 kts 72°
2026-05-04 09:26 48.51493 20.46864 6004 ft 194 kts 72°
2026-05-04 09:26 48.51939 20.48793 6005 ft 195 kts 72°
2026-05-04 09:27 48.52383 20.50724 6006 ft 195 kts 72°
2026-05-04 09:27 48.52826 20.52656 6006 ft 195 kts 72°
2026-05-04 09:27 48.53269 20.54584 6008 ft 195 kts 72°
2026-05-04 09:27 48.53711 20.56519 6007 ft 195 kts 73°
2026-05-04 09:28 48.54155 20.58474 5996 ft 197 kts 72°
2026-05-04 09:28 48.54607 20.60411 5990 ft 194 kts 71°
2026-05-04 09:28 48.55053 20.62337 5994 ft 197 kts 74°
2026-05-04 09:28 48.55482 20.64303 5993 ft 198 kts 75°
2026-05-04 09:29 48.55929 20.66271 5993 ft 197 kts 73°
2026-05-04 09:29 48.56378 20.68225 5992 ft 197 kts 73°
2026-05-04 09:29 48.56825 20.70177 5991 ft 197 kts 74°
2026-05-04 09:29 48.57172 20.72166 5990 ft 195 kts 82°
2026-05-04 09:30 48.57455 20.74169 5994 ft 193 kts 79°
2026-05-04 09:30 48.57746 20.76123 5985 ft 189 kts 79°
2026-05-04 09:30 48.58027 20.78040 5995 ft 187 kts 81°
2026-05-04 09:30 48.58308 20.79967 6003 ft 189 kts 81°
2026-05-04 09:31 48.58587 20.81889 6006 ft 189 kts 80°
2026-05-04 09:31 48.58874 20.83828 6008 ft 189 kts 79°
2026-05-04 09:31 48.59171 20.85791 6013 ft 189 kts 79°
2026-05-04 09:31 48.59454 20.87704 6004 ft 189 kts 80°
2026-05-04 09:32 48.59733 20.89646 6005 ft 189 kts 81°
2026-05-04 09:32 48.60014 20.91583 6007 ft 188 kts 80°
2026-05-04 09:34 48.62633 21.04894 6016 ft 191 kts 68°
2026-05-04 09:34 48.63163 21.06749 6014 ft 193 kts 68°
2026-05-04 09:34 48.63693 21.08596 6014 ft 192 kts 68°
2026-05-04 09:34 48.64223 21.10449 6007 ft 193 kts 68°
2026-05-04 09:35 48.64753 21.12311 6002 ft 192 kts 68°
2026-05-04 09:35 48.65281 21.14153 6003 ft 190 kts 68°
2026-05-04 09:35 48.65804 21.15962 6003 ft 178 kts 68°
2026-05-04 09:35 48.66269 21.17586 5847 ft 163 kts 68°
2026-05-04 09:37 48.66467 21.28157 4188 ft 141 kts 96°
2026-05-04 09:37 48.66446 21.29614 3925 ft 135 kts 96°
2026-05-04 09:38 48.66409 21.31037 3682 ft 137 kts 97°
2026-05-04 09:38 48.66379 21.32496 3467 ft 145 kts 97°
2026-05-04 09:38 48.66327 21.34059 3207 ft 151 kts 94°
2026-05-04 09:38 48.66321 21.35668 2981 ft 155 kts 92°
2026-05-04 09:39 48.66287 21.37326 2843 ft 157 kts 97°
2026-05-04 09:39 48.66223 21.39026 2882 ft 167 kts 96°
2026-05-04 09:39 48.66188 21.40817 2879 ft 163 kts 94°
2026-05-04 09:39 48.66178 21.42401 2806 ft 141 kts 93°
2026-05-04 09:40 48.66142 21.43770 2847 ft 118 kts 99°
2026-05-04 09:40 48.66095 21.45026 2866 ft 122 kts 97°
2026-05-04 09:40 48.66266 21.46315 2741 ft 128 kts 60°
2026-05-04 09:40 48.66905 21.47123 2569 ft 116 kts 19°
2026-05-04 09:41 48.67682 21.47239 2467 ft 112 kts 345°
2026-05-04 09:42 48.72394 21.45519 1467 ft 88 kts 343°
2026-05-04 09:43 48.72960 21.45316 1326 ft 81 kts 341°
2026-05-04 09:43 48.73552 21.45113 1159 ft 92 kts 341°
2026-05-04 09:43 48.74152 21.44889 983 ft 82 kts 339°
2026-05-04 09:43 48.74479 21.44791 974 ft 5 kts 359°
2026-05-04 09:44 48.74463 21.44776 978 ft 1 kts 170°
2026-05-04 09:44 48.74449 21.44776 978 ft 6 kts 200°
2026-05-04 09:44 48.74449 21.44749 975 ft 0 kts 358°